Time;durP1;ratioP1;P1;durP2;ratioP2;P2;SDS_P1;SDS_P2;PMS_P1;PMS_P2;Temp;Humidity;BMP_temperature;BMP_pressure;BME280_temperature;BME280_humidity;BME280_pressure;Samples;Min_cycle;Max_cycle;Signal;HPM_P1;HPM_P2
2022/08/02 00:02:18;;;;;;;;;1.50;1.50;;;;;;;;5013527;28;8812;-82
2022/08/02 00:04:46;;;;;;;;;1.00;1.00;;;;;;;;5002106;28;8856;-82
2022/08/02 00:07:14;;;;;;;;;2.25;2.25;;;;;;;;5009277;28;8872;-82
2022/08/02 00:09:43;;;;;;;;;3.25;1.75;;;;;;;;5005557;28;8876;-82
2022/08/02 00:12:11;;;;;;;;;2.25;2.25;;;;;;;;5005501;28;8902;-82
2022/08/02 00:14:38;;;;;;;;;1.75;1.75;;;;;;;;5006181;28;8868;-82
2022/08/02 00:17:06;;;;;;;;;2.00;2.00;;;;;;;;5006681;28;8956;-81
2022/08/02 00:19:34;;;;;;;;;2.75;2.75;;;;;;;;5009528;28;8978;-82
2022/08/02 00:22:01;;;;;;;;;1.75;1.75;;;;;;;;5005331;28;8872;-82
2022/08/02 00:24:28;;;;;;;;;2.25;2.25;;;;;;;;5006208;28;8880;-82
2022/08/02 00:27:02;;;;;;;;;3.00;3.00;;;;;;;;5005582;28;8872;-82
2022/08/02 00:29:29;;;;;;;;;2.50;2.50;;;;;;;;5006712;28;10078;-82
2022/08/02 00:31:57;;;;;;;;;1.25;1.25;;;;;;;;5005217;28;8808;-82
2022/08/02 00:34:25;;;;;;;;;2.00;2.00;;;;;;;;5004515;28;10125;-82
2022/08/02 00:36:52;;;;;;;;;2.00;2.00;;;;;;;;5006048;28;9000;-81
2022/08/02 00:39:20;;;;;;;;;3.25;1.50;;;;;;;;5004841;28;8884;-82
2022/08/02 00:41:49;;;;;;;;;2.00;2.00;;;;;;;;5003066;28;8880;-82
2022/08/02 00:44:19;;;;;;;;;2.00;2.00;;;;;;;;5004680;28;8915;-82
2022/08/02 00:46:47;;;;;;;;;2.00;2.00;;;;;;;;5005087;28;8946;-82
2022/08/02 00:49:15;;;;;;;;;2.00;2.00;;;;;;;;5006102;28;8892;-81
2022/08/02 00:51:42;;;;;;;;;3.00;3.00;;;;;;;;5008031;28;8888;-82
2022/08/02 00:54:09;;;;;;;;;3.75;3.00;;;;;;;;5005779;28;8979;-82
2022/08/02 00:56:36;;;;;;;;;2.00;2.00;;;;;;;;5004469;28;8891;-82
2022/08/02 00:59:05;;;;;;;;;2.00;2.00;;;;;;;;5006943;28;8873;-82
2022/08/02 01:01:50;;;;;;;;;3.00;3.00;;;;;;;;5001130;28;8879;-82
2022/08/02 01:04:18;;;;;;;;;2.00;2.00;;;;;;;;4998042;28;9011;-82
2022/08/02 01:06:45;;;;;;;;;2.25;2.25;;;;;;;;5004753;28;8872;-82
2022/08/02 01:09:12;;;;;;;;;3.75;3.75;;;;;;;;5010137;28;8874;-82
2022/08/02 01:11:40;;;;;;;;;2.75;2.75;;;;;;;;5004868;28;8908;-82
2022/08/02 01:14:09;;;;;;;;;3.75;2.50;;;;;;;;5004386;28;8891;-82
2022/08/02 01:16:43;;;;;;;;;2.00;2.00;;;;;;;;5006216;28;9003;-82
2022/08/02 01:19:32;;;;;;;;;2.00;2.00;;;;;;;;4998139;28;8919;-83
2022/08/02 01:22:20;;;;;;;;;1.75;1.75;;;;;;;;4996722;28;8895;-82
2022/08/02 01:25:04;;;;;;;;;2.00;2.00;;;;;;;;5006224;28;8849;-82
2022/08/02 01:27:40;;;;;;;;;3.25;3.25;;;;;;;;5003468;28;8888;-81
2022/08/02 01:30:09;;;;;;;;;2.25;2.25;;;;;;;;5004822;28;8880;-82
2022/08/02 01:32:42;;;;;;;;;1.75;1.75;;;;;;;;5003534;28;8897;-81
2022/08/02 01:35:12;;;;;;;;;4.25;2.50;;;;;;;;5005249;28;8888;-81
2022/08/02 01:37:43;;;;;;;;;3.75;3.75;;;;;;;;5006399;28;8896;-82
2022/08/02 01:40:13;;;;;;;;;2.25;2.25;;;;;;;;5004124;28;8991;-81
2022/08/02 01:42:50;;;;;;;;;2.75;2.75;;;;;;;;5007089;28;8924;-82
2022/08/02 01:45:20;;;;;;;;;2.00;2.00;;;;;;;;5003733;28;9007;-83
2022/08/02 01:47:49;;;;;;;;;4.00;2.50;;;;;;;;5004846;28;8892;-81
2022/08/02 01:50:19;;;;;;;;;2.00;2.00;;;;;;;;5005636;28;8884;-81
2022/08/02 01:52:50;;;;;;;;;2.00;2.00;;;;;;;;5002818;28;8902;-82
2022/08/02 01:55:25;;;;;;;;;3.50;3.50;;;;;;;;5006805;28;8854;-83
2022/08/02 01:57:59;;;;;;;;;2.50;2.50;;;;;;;;5002339;28;8914;-82
2022/08/02 02:00:31;;;;;;;;;1.50;1.50;;;;;;;;5004841;28;8803;-81
2022/08/02 02:02:59;;;;;;;;;2.25;2.25;;;;;;;;5005288;28;8918;-81
2022/08/02 02:05:29;;;;;;;;;2.00;2.00;;;;;;;;5004699;28;8867;-81
2022/08/02 02:07:59;;;;;;;;;4.25;3.75;;;;;;;;5001881;28;9595;-82
2022/08/02 02:10:28;;;;;;;;;3.25;3.25;;;;;;;;4996132;28;8884;-82
2022/08/02 02:12:57;;;;;;;;;2.50;2.50;;;;;;;;4996863;28;8890;-81
2022/08/02 02:15:25;;;;;;;;;1.50;1.50;;;;;;;;5002559;28;8894;-81
2022/08/02 02:17:57;;;;;;;;;3.00;3.00;;;;;;;;5004932;28;8937;-82
2022/08/02 02:20:25;;;;;;;;;3.75;3.50;;;;;;;;4995089;28;8888;-82
2022/08/02 02:22:52;;;;;;;;;2.00;2.00;;;;;;;;5003593;28;8872;-82
2022/08/02 02:25:21;;;;;;;;;3.00;3.00;;;;;;;;5000708;28;8852;-82
2022/08/02 02:27:54;;;;;;;;;2.50;2.50;;;;;;;;5003105;28;8914;-81
2022/08/02 02:30:23;;;;;;;;;3.00;3.00;;;;;;;;5003767;28;8892;-82
2022/08/02 02:32:55;;;;;;;;;2.50;2.50;;;;;;;;5000483;28;8896;-81
2022/08/02 02:35:23;;;;;;;;;3.00;3.00;;;;;;;;5009535;28;8860;-82
2022/08/02 02:37:51;;;;;;;;;2.00;2.00;;;;;;;;5002375;28;8884;-81
2022/08/02 02:40:20;;;;;;;;;2.50;2.50;;;;;;;;5003695;28;9015;-82
2022/08/02 02:42:48;;;;;;;;;2.50;2.00;;;;;;;;4999028;28;8852;-82
2022/08/02 02:45:17;;;;;;;;;2.00;2.00;;;;;;;;4990543;28;8920;-81
2022/08/02 02:47:44;;;;;;;;;4.00;2.50;;;;;;;;5002360;28;8900;-82
2022/08/02 02:50:13;;;;;;;;;2.75;2.75;;;;;;;;5007878;28;8886;-83
2022/08/02 02:52:41;;;;;;;;;3.00;2.00;;;;;;;;5003111;28;8876;-82
2022/08/02 02:55:11;;;;;;;;;2.50;2.50;;;;;;;;5007240;28;8896;-82
2022/08/02 02:57:38;;;;;;;;;2.00;2.00;;;;;;;;5009580;28;8860;-83
2022/08/02 03:00:08;;;;;;;;;2.00;2.00;;;;;;;;5008943;28;8909;-83
2022/08/02 03:02:38;;;;;;;;;1.25;1.25;;;;;;;;5004004;28;8894;-83
2022/08/02 03:05:07;;;;;;;;;2.00;1.75;;;;;;;;5013202;28;9513;-83
2022/08/02 03:07:37;;;;;;;;;2.00;2.00;;;;;;;;5002592;28;8861;-81
2022/08/02 03:10:06;;;;;;;;;1.50;1.50;;;;;;;;5004005;28;8906;-82
2022/08/02 03:12:34;;;;;;;;;3.00;3.00;;;;;;;;5012267;28;8904;-82
2022/08/02 03:15:04;;;;;;;;;1.75;1.75;;;;;;;;5011790;28;8872;-82
2022/08/02 03:17:39;;;;;;;;;2.00;2.00;;;;;;;;4998733;28;8926;-81
2022/08/02 03:20:12;;;;;;;;;2.00;2.00;;;;;;;;4996816;28;8896;-82
2022/08/02 03:22:42;;;;;;;;;3.00;1.75;;;;;;;;5003772;28;8853;-82
2022/08/02 03:25:10;;;;;;;;;2.00;2.00;;;;;;;;5004023;28;8901;-83
2022/08/02 03:27:37;;;;;;;;;3.00;1.50;;;;;;;;5008355;28;8905;-82
2022/08/02 03:30:07;;;;;;;;;2.00;2.00;;;;;;;;5006212;28;8918;-82
2022/08/02 03:32:34;;;;;;;;;2.00;1.00;;;;;;;;5011302;28;8874;-83
2022/08/02 03:35:02;;;;;;;;;2.00;2.00;;;;;;;;5007610;28;8852;-82
2022/08/02 03:37:30;;;;;;;;;2.75;2.75;;;;;;;;5005408;28;9637;-82
2022/08/02 03:40:00;;;;;;;;;2.25;2.25;;;;;;;;5007720;28;8872;-83
2022/08/02 03:42:28;;;;;;;;;2.75;2.75;;;;;;;;5015381;28;8900;-83
2022/08/02 03:44:56;;;;;;;;;2.00;2.00;;;;;;;;5008998;28;8876;-82
2022/08/02 03:47:24;;;;;;;;;2.00;2.00;;;;;;;;5004492;28;8895;-83
2022/08/02 03:49:52;;;;;;;;;4.00;2.75;;;;;;;;5009885;28;9726;-83
2022/08/02 03:52:20;;;;;;;;;1.75;1.75;;;;;;;;5012184;28;8871;-83
2022/08/02 03:54:47;;;;;;;;;2.00;2.00;;;;;;;;5013815;28;9783;-83
2022/08/02 03:57:16;;;;;;;;;3.75;2.25;;;;;;;;5008836;28;9663;-82
2022/08/02 03:59:45;;;;;;;;;3.75;2.75;;;;;;;;5006387;28;8861;-81
2022/08/02 04:02:13;;;;;;;;;1.75;1.75;;;;;;;;5006245;28;8817;-83
2022/08/02 04:04:40;;;;;;;;;1.25;1.25;;;;;;;;5010468;28;8868;-83
2022/08/02 04:07:07;;;;;;;;;3.00;3.00;;;;;;;;5007389;28;8890;-83
2022/08/02 04:09:35;;;;;;;;;2.50;2.50;;;;;;;;5005423;28;8840;-83
2022/08/02 04:12:02;;;;;;;;;2.25;2.25;;;;;;;;5005257;28;9611;-82
2022/08/02 04:14:31;;;;;;;;;4.25;3.00;;;;;;;;5000647;28;8892;-83
2022/08/02 04:17:02;;;;;;;;;1.25;1.25;;;;;;;;5000191;28;8895;-82
2022/08/02 04:19:33;;;;;;;;;1.50;1.50;;;;;;;;5012980;28;9592;-83
2022/08/02 04:22:03;;;;;;;;;3.00;3.00;;;;;;;;4999620;28;8868;-82
2022/08/02 04:24:36;;;;;;;;;2.00;2.00;;;;;;;;5011564;28;8900;-83
2022/08/02 04:27:04;;;;;;;;;3.75;2.25;;;;;;;;5006869;28;8864;-83
2022/08/02 04:29:33;;;;;;;;;3.00;3.00;;;;;;;;5005741;28;8994;-82
2022/08/02 04:32:02;;;;;;;;;1.00;1.00;;;;;;;;5007989;28;8808;-83
2022/08/02 04:34:29;;;;;;;;;3.75;2.25;;;;;;;;5012065;28;8880;-83
2022/08/02 04:36:57;;;;;;;;;2.00;2.00;;;;;;;;5000943;28;8875;-83
2022/08/02 04:39:25;;;;;;;;;3.00;3.00;;;;;;;;5000403;28;8965;-82
2022/08/02 04:41:52;;;;;;;;;2.25;2.25;;;;;;;;5002612;28;8860;-83
2022/08/02 04:44:20;;;;;;;;;2.00;2.00;;;;;;;;5011658;28;8883;-82
2022/08/02 04:46:48;;;;;;;;;2.50;2.50;;;;;;;;5004695;28;8874;-83
2022/08/02 04:49:16;;;;;;;;;1.75;1.75;;;;;;;;5005967;28;8902;-82
2022/08/02 04:51:44;;;;;;;;;1.25;1.25;;;;;;;;5005441;28;8982;-82
2022/08/02 04:54:12;;;;;;;;;1.00;1.00;;;;;;;;5004861;28;8892;-82
2022/08/02 04:56:40;;;;;;;;;1.00;1.00;;;;;;;;5005427;28;8864;-83
2022/08/02 04:59:07;;;;;;;;;3.00;1.25;;;;;;;;5005878;28;8896;-83
2022/08/02 05:01:35;;;;;;;;;1.75;1.75;;;;;;;;5005214;28;8870;-82
2022/08/02 05:04:04;;;;;;;;;3.75;2.00;;;;;;;;5005437;28;8880;-82
2022/08/02 05:06:32;;;;;;;;;2.00;2.00;;;;;;;;5006636;28;8856;-82
2022/08/02 05:08:59;;;;;;;;;2.00;2.00;;;;;;;;5005024;28;8974;-83
2022/08/02 05:11:27;;;;;;;;;2.00;2.00;;;;;;;;5000539;28;8919;-82
2022/08/02 05:13:54;;;;;;;;;2.75;2.75;;;;;;;;5004576;28;9774;-83
2022/08/02 05:16:22;;;;;;;;;4.00;4.00;;;;;;;;5001739;28;8935;-82
2022/08/02 05:21:32;;;;;;;;;3.00;3.00;;;;;;;;4977837;28;8930;-83
2022/08/02 05:23:59;;;;;;;;;3.00;3.00;;;;;;;;5010170;28;9634;-83
2022/08/02 05:26:27;;;;;;;;;2.75;2.75;;;;;;;;5003951;28;8927;-84
2022/08/02 05:28:54;;;;;;;;;2.00;2.00;;;;;;;;5000377;28;8989;-83
2022/08/02 05:31:22;;;;;;;;;4.00;3.75;;;;;;;;5001175;28;8876;-83
2022/08/02 05:33:49;;;;;;;;;3.75;3.75;;;;;;;;4988377;28;8876;-83
2022/08/02 05:36:17;;;;;;;;;2.50;2.50;;;;;;;;5004780;28;8887;-82
2022/08/02 05:38:47;;;;;;;;;3.00;3.00;;;;;;;;5003511;28;8860;-83
2022/08/02 05:41:14;;;;;;;;;3.00;3.00;;;;;;;;5005780;28;8896;-82
2022/08/02 05:43:42;;;;;;;;;3.50;3.50;;;;;;;;5004080;28;8873;-84
2022/08/02 05:46:09;;;;;;;;;4.00;4.00;;;;;;;;5003933;28;9007;-83
2022/08/02 05:48:36;;;;;;;;;4.00;4.00;;;;;;;;5003271;28;8982;-83
2022/08/02 05:51:05;;;;;;;;;3.50;3.50;;;;;;;;5004904;28;8884;-83
2022/08/02 05:53:39;;;;;;;;;4.00;4.00;;;;;;;;5003578;28;8852;-82
2022/08/02 05:56:18;;;;;;;;;5.00;5.00;;;;;;;;5005346;28;8890;-82
2022/08/02 05:58:50;;;;;;;;;4.00;4.00;;;;;;;;5005241;28;8903;-82
2022/08/02 06:01:27;;;;;;;;;5.50;5.50;;;;;;;;4985036;28;8833;-82
2022/08/02 06:03:57;;;;;;;;;4.00;4.00;;;;;;;;5008932;28;9523;-82
2022/08/02 06:06:26;;;;;;;;;4.25;4.25;;;;;;;;5010263;28;8894;-82
2022/08/02 06:08:59;;;;;;;;;4.50;3.00;;;;;;;;5004424;28;8966;-83
2022/08/02 06:11:34;;;;;;;;;4.00;3.25;;;;;;;;5002182;28;8879;-82
2022/08/02 06:14:04;;;;;;;;;4.00;4.00;;;;;;;;5005820;28;8945;-82
2022/08/02 06:16:31;;;;;;;;;3.00;3.00;;;;;;;;5000804;28;8979;-82
2022/08/02 06:19:00;;;;;;;;;3.50;3.50;;;;;;;;5002799;28;9658;-82
2022/08/02 06:21:27;;;;;;;;;2.75;2.25;;;;;;;;5004146;28;9693;-82
2022/08/02 06:23:57;;;;;;;;;3.75;3.75;;;;;;;;5005646;28;8904;-82
2022/08/02 06:26:25;;;;;;;;;3.00;3.00;;;;;;;;5011431;28;8895;-82
2022/08/02 06:28:55;;;;;;;;;3.00;3.00;;;;;;;;5009294;28;8882;-83
2022/08/02 06:31:23;;;;;;;;;3.00;3.00;;;;;;;;5002566;28;10022;-80
2022/08/02 06:33:51;;;;;;;;;3.25;3.00;;;;;;;;5001125;28;9520;-81
2022/08/02 06:36:26;;;;;;;;;2.50;2.50;;;;;;;;5001722;28;9797;-81
2022/08/02 06:38:56;;;;;;;;;3.00;3.00;;;;;;;;5009024;28;8849;-82
2022/08/02 06:41:25;;;;;;;;;2.75;2.75;;;;;;;;5008332;28;8979;-81
2022/08/02 06:43:59;;;;;;;;;4.50;3.75;;;;;;;;5013390;28;8846;-81
2022/08/02 06:46:26;;;;;;;;;3.50;3.50;;;;;;;;5008257;28;8894;-81
2022/08/02 06:48:54;;;;;;;;;3.00;3.00;;;;;;;;5003782;28;8910;-81
2022/08/02 06:51:21;;;;;;;;;4.00;4.00;;;;;;;;5004517;28;8896;-82
2022/08/02 06:53:49;;;;;;;;;3.00;3.00;;;;;;;;5002254;28;8969;-82
2022/08/02 06:56:18;;;;;;;;;2.25;2.25;;;;;;;;5004145;28;8986;-82
2022/08/02 06:58:45;;;;;;;;;3.50;2.00;;;;;;;;5001496;28;8951;-81
2022/08/02 07:01:14;;;;;;;;;4.00;2.00;;;;;;;;5008823;28;8840;-82
2022/08/02 07:03:42;;;;;;;;;3.25;3.00;;;;;;;;5009797;28;8860;-82
2022/08/02 07:06:11;;;;;;;;;3.00;3.00;;;;;;;;5010321;28;8885;-83
2022/08/02 07:08:39;;;;;;;;;5.00;3.25;;;;;;;;5010434;28;8869;-81
2022/08/02 07:11:07;;;;;;;;;2.25;1.75;;;;;;;;5009523;28;8872;-82
2022/08/02 07:13:35;;;;;;;;;3.00;1.25;;;;;;;;5011625;28;9670;-82
2022/08/02 07:16:02;;;;;;;;;2.00;2.00;;;;;;;;5008615;28;8875;-81
2022/08/02 07:18:32;;;;;;;;;4.00;3.00;;;;;;;;5010157;28;8874;-82
2022/08/02 07:20:59;;;;;;;;;5.25;3.00;;;;;;;;5007981;28;8872;-83
2022/08/02 07:23:26;;;;;;;;;2.60;1.20;;;;;;;;5009548;28;8898;-82
2022/08/02 07:25:54;;;;;;;;;3.00;3.00;;;;;;;;5011309;28;8910;-82
2022/08/02 07:28:21;;;;;;;;;2.00;2.00;;;;;;;;5007108;28;8860;-83
2022/08/02 07:30:49;;;;;;;;;1.60;1.60;;;;;;;;5016324;28;8859;-85
2022/08/02 07:33:16;;;;;;;;;1.20;1.20;;;;;;;;5011965;28;8963;-81
2022/08/02 07:35:45;;;;;;;;;2.00;2.00;;;;;;;;5012305;28;8887;-82
2022/08/02 07:38:12;;;;;;;;;2.00;2.00;;;;;;;;5007449;28;8958;-76
2022/08/02 07:40:39;;;;;;;;;2.00;2.00;;;;;;;;5009690;28;8916;-83
2022/08/02 07:43:07;;;;;;;;;1.20;1.20;;;;;;;;5008175;28;8906;-81
2022/08/02 07:45:34;;;;;;;;;2.60;2.60;;;;;;;;5005119;28;8896;-82
2022/08/02 07:48:01;;;;;;;;;2.80;2.80;;;;;;;;5008179;28;8879;-81
2022/08/02 07:50:29;;;;;;;;;2.00;2.00;;;;;;;;5007413;28;8870;-82
2022/08/02 07:52:58;;;;;;;;;2.00;2.00;;;;;;;;5009659;28;8937;-81
2022/08/02 07:55:25;;;;;;;;;4.00;2.00;;;;;;;;5006965;28;8872;-83
2022/08/02 07:57:56;;;;;;;;;2.00;2.00;;;;;;;;5011332;28;8974;-82
2022/08/02 08:00:23;;;;;;;;;2.00;2.00;;;;;;;;5004829;28;8872;-83
2022/08/02 08:02:51;;;;;;;;;2.60;2.60;;;;;;;;5006578;28;8901;-82
2022/08/02 08:05:19;;;;;;;;;1.80;1.80;;;;;;;;5009886;28;8868;-83
2022/08/02 08:07:46;;;;;;;;;1.60;1.60;;;;;;;;5009053;28;8984;-82
2022/08/02 08:10:15;;;;;;;;;4.00;2.00;;;;;;;;5010801;28;8880;-82
2022/08/02 08:12:42;;;;;;;;;2.00;2.00;;;;;;;;5002874;28;8852;-81
2022/08/02 08:15:10;;;;;;;;;3.80;3.00;;;;;;;;5008115;28;8925;-81
2022/08/02 08:17:38;;;;;;;;;3.40;3.40;;;;;;;;5001518;28;8866;-82
2022/08/02 08:20:06;;;;;;;;;2.00;2.00;;;;;;;;5003917;28;8880;-81
2022/08/02 08:22:34;;;;;;;;;3.00;3.00;;;;;;;;5006680;28;8991;-81
2022/08/02 08:25:01;;;;;;;;;1.60;1.60;;;;;;;;4999553;28;8989;-82
2022/08/02 08:27:30;;;;;;;;;3.40;2.60;;;;;;;;5001657;28;9691;-83
2022/08/02 08:29:57;;;;;;;;;2.00;2.00;;;;;;;;5005447;28;8898;-82
2022/08/02 08:32:25;;;;;;;;;1.00;1.00;;;;;;;;5006290;28;8820;-82
2022/08/02 08:34:56;;;;;;;;;3.00;3.00;;;;;;;;5003608;28;8977;-82
2022/08/02 08:37:23;;;;;;;;;2.60;2.60;;;;;;;;5004612;28;8864;-82
2022/08/02 08:39:52;;;;;;;;;2.00;2.00;;;;;;;;5004949;28;8907;-81
2022/08/02 08:42:19;;;;;;;;;2.00;2.00;;;;;;;;5002527;28;9611;-82
2022/08/02 08:44:48;;;;;;;;;4.00;2.40;;;;;;;;5008470;28;8862;-81
2022/08/02 08:47:16;;;;;;;;;3.40;3.40;;;;;;;;5004110;28;8876;-81
2022/08/02 08:49:45;;;;;;;;;2.60;2.60;;;;;;;;5006902;28;9674;-80
2022/08/02 08:52:18;;;;;;;;;2.60;2.60;;;;;;;;5001454;28;9007;-81
2022/08/02 08:54:49;;;;;;;;;3.00;3.00;;;;;;;;5004724;28;8880;-78
2022/08/02 08:57:18;;;;;;;;;1.80;1.80;;;;;;;;5005567;28;8876;-78
2022/08/02 08:59:48;;;;;;;;;3.00;3.00;;;;;;;;5003101;28;9449;-81
2022/08/02 09:02:15;;;;;;;;;2.00;2.00;;;;;;;;5002068;28;9027;-78
2022/08/02 09:04:44;;;;;;;;;2.20;2.20;;;;;;;;5006139;28;8899;-79
2022/08/02 09:07:11;;;;;;;;;2.00;2.00;;;;;;;;4985258;28;8855;-79
2022/08/02 09:09:39;;;;;;;;;2.80;2.80;;;;;;;;5000110;28;8864;-77
2022/08/02 09:12:24;;;;;;;;;2.00;2.00;;;;;;;;5003505;28;9595;-77
2022/08/02 09:14:53;;;;;;;;;0.80;0.80;;;;;;;;5001018;28;8880;-81
2022/08/02 09:17:21;;;;;;;;;2.00;2.00;;;;;;;;4999016;28;8900;-78
2022/08/02 09:19:48;;;;;;;;;3.20;1.80;;;;;;;;5003034;28;8855;-80
2022/08/02 09:22:15;;;;;;;;;2.20;2.20;;;;;;;;5006757;28;8984;-78
2022/08/02 09:24:45;;;;;;;;;2.00;2.00;;;;;;;;5000555;28;8971;-75
2022/08/02 09:27:14;;;;;;;;;1.60;1.60;;;;;;;;5003631;28;8900;-76
2022/08/02 09:29:45;;;;;;;;;3.60;3.60;;;;;;;;5000456;28;8868;-73
2022/08/02 09:32:15;;;;;;;;;1.80;1.80;;;;;;;;5002374;28;8815;-76
2022/08/02 09:34:47;;;;;;;;;3.00;3.00;;;;;;;;5004393;28;8896;-78
2022/08/02 09:37:25;;;;;;;;;2.60;2.60;;;;;;;;5003075;28;9771;-78
2022/08/02 09:39:53;;;;;;;;;4.60;2.00;;;;;;;;5002874;28;8860;-75
2022/08/02 09:42:21;;;;;;;;;2.00;2.00;;;;;;;;5003153;28;8856;-76
2022/08/02 09:44:55;;;;;;;;;2.20;2.00;;;;;;;;5001922;28;8903;-77
2022/08/02 09:47:24;;;;;;;;;2.00;2.00;;;;;;;;4993785;28;8891;-80
2022/08/02 09:49:53;;;;;;;;;2.00;2.00;;;;;;;;5001441;28;8959;-75
2022/08/02 09:52:27;;;;;;;;;2.80;2.80;;;;;;;;5003377;28;8868;-75
2022/08/02 09:54:55;;;;;;;;;3.40;2.80;;;;;;;;5004037;28;8883;-77
2022/08/02 09:57:28;;;;;;;;;3.00;3.00;;;;;;;;5004281;28;8880;-80
2022/08/02 09:59:56;;;;;;;;;2.20;2.20;;;;;;;;5003968;28;9011;-77
2022/08/02 10:02:26;;;;;;;;;2.80;2.80;;;;;;;;5001802;28;8796;-77
2022/08/02 10:04:53;;;;;;;;;2.60;2.60;;;;;;;;5003900;28;8902;-75
2022/08/02 10:07:21;;;;;;;;;2.40;2.40;;;;;;;;4985246;28;9646;-78
2022/08/02 10:09:48;;;;;;;;;2.00;2.00;;;;;;;;4998411;28;8890;-75
2022/08/02 10:12:16;;;;;;;;;2.20;2.20;;;;;;;;4998749;28;8876;-81
2022/08/02 10:14:43;;;;;;;;;2.00;2.00;;;;;;;;5004767;28;9010;-77
2022/08/02 10:17:11;;;;;;;;;6.40;3.00;;;;;;;;4993945;28;9040;-75
2022/08/02 10:19:40;;;;;;;;;3.00;3.00;;;;;;;;5002222;28;8860;-78
2022/08/02 10:22:11;;;;;;;;;3.80;3.80;;;;;;;;5003110;28;9034;-78
2022/08/02 10:24:39;;;;;;;;;2.80;2.00;;;;;;;;5003108;28;8984;-78
2022/08/02 10:27:08;;;;;;;;;2.20;2.20;;;;;;;;5003280;28;8864;-77
2022/08/02 10:29:37;;;;;;;;;3.40;3.40;;;;;;;;5004013;28;8868;-78
2022/08/02 10:32:08;;;;;;;;;2.40;2.40;;;;;;;;5005531;28;8859;-73
2022/08/02 10:34:41;;;;;;;;;3.60;2.00;;;;;;;;5005156;28;9763;-75
2022/08/02 10:37:09;;;;;;;;;3.40;3.40;;;;;;;;5014632;28;9479;-75
2022/08/02 10:39:40;;;;;;;;;3.20;2.00;;;;;;;;5014071;28;8884;-76
2022/08/02 10:42:08;;;;;;;;;0.20;0.20;;;;;;;;5002468;28;8880;-76
2022/08/02 10:44:37;;;;;;;;;1.80;1.80;;;;;;;;5004289;28;8892;-76
2022/08/02 10:47:25;;;;;;;;;3.00;1.60;;;;;;;;5007852;28;9090;-79
2022/08/02 10:49:56;;;;;;;;;2.20;2.20;;;;;;;;5005203;28;9614;-82
2022/08/02 10:52:24;;;;;;;;;2.80;1.00;;;;;;;;5003478;28;8906;-78
2022/08/02 10:54:56;;;;;;;;;0.80;0.80;;;;;;;;5013993;28;8876;-78
2022/08/02 10:57:25;;;;;;;;;2.00;2.00;;;;;;;;5003481;28;9642;-76
2022/08/02 10:59:57;;;;;;;;;1.00;1.00;;;;;;;;5019239;28;8866;-75
2022/08/02 11:02:42;;;;;;;;;2.80;1.00;;;;;;;;5008366;28;8825;-76
2022/08/02 11:05:14;;;;;;;;;1.20;1.20;;;;;;;;4999806;28;8954;-74
2022/08/02 11:07:43;;;;;;;;;3.00;3.00;;;;;;;;5001165;28;9069;-76
2022/08/02 11:10:44;;;;;;;;;1.00;1.00;;;;;;;;5012317;28;8865;-80
2022/08/02 11:13:13;;;;;;;;;1.00;1.00;;;;;;;;4972798;28;8892;-81
2022/08/02 11:16:01;;;;;;;;;0.00;0.00;;;;;;;;4959125;28;8900;-79
2022/08/02 11:19:03;;;;;;;;;0.80;0.80;;;;;;;;4986134;28;8946;-75
2022/08/02 11:21:34;;;;;;;;;1.00;1.00;;;;;;;;4993791;28;8897;-76
2022/08/02 11:24:25;;;;;;;;;1.40;1.40;;;;;;;;5002251;28;8891;-79
2022/08/02 11:26:53;;;;;;;;;2.00;2.00;;;;;;;;5002476;28;8911;-75
2022/08/02 11:29:20;;;;;;;;;3.00;3.00;;;;;;;;4991276;28;8868;-79
2022/08/02 11:31:48;;;;;;;;;2.20;2.20;;;;;;;;5003136;28;8812;-78
2022/08/02 11:34:17;;;;;;;;;2.20;2.20;;;;;;;;5002666;28;8892;-77
2022/08/02 11:36:47;;;;;;;;;0.80;0.80;;;;;;;;5002385;28;9630;-76
2022/08/02 11:39:16;;;;;;;;;2.20;2.20;;;;;;;;5001474;28;8983;-77
2022/08/02 11:41:48;;;;;;;;;0.00;0.00;;;;;;;;5001777;28;8864;-76
2022/08/02 11:44:15;;;;;;;;;0.80;0.80;;;;;;;;5002807;28;8885;-75
2022/08/02 11:46:42;;;;;;;;;0.00;0.00;;;;;;;;5002187;28;8880;-77
2022/08/02 11:49:17;;;;;;;;;1.00;1.00;;;;;;;;5006592;28;8864;-77
2022/08/02 11:52:04;;;;;;;;;1.20;1.00;;;;;;;;5005245;28;8884;-76
2022/08/02 11:54:32;;;;;;;;;1.00;1.00;;;;;;;;5005236;28;9045;-77
2022/08/02 11:57:13;;;;;;;;;1.00;1.00;;;;;;;;5006804;28;8872;-77
2022/08/02 11:59:42;;;;;;;;;1.20;1.20;;;;;;;;5002821;28;10231;-76
2022/08/02 12:02:10;;;;;;;;;1.00;1.00;;;;;;;;5005916;28;8825;-77
2022/08/02 12:04:38;;;;;;;;;0.80;0.20;;;;;;;;5005493;28;8852;-76
2022/08/02 12:07:07;;;;;;;;;0.00;0.00;;;;;;;;5013700;28;8876;-78
2022/08/02 12:09:36;;;;;;;;;2.00;1.00;;;;;;;;5018141;28;8837;-79
2022/08/02 12:12:05;;;;;;;;;1.40;1.40;;;;;;;;5009365;28;8872;-79
2022/08/02 12:14:32;;;;;;;;;1.00;1.00;;;;;;;;5007228;28;8852;-79
2022/08/02 12:19:46;;;;;;;;;0.40;0.40;;;;;;;;5005093;28;8881;-80
2022/08/02 12:22:17;;;;;;;;;1.00;1.00;;;;;;;;5004518;28;9753;-79
2022/08/02 12:24:47;;;;;;;;;1.00;1.00;;;;;;;;5002876;28;8888;-78
2022/08/02 12:27:31;;;;;;;;;1.00;1.00;;;;;;;;5006069;28;8922;-82
2022/08/02 12:30:05;;;;;;;;;0.40;0.40;;;;;;;;5005222;28;10106;-81
2022/08/02 12:32:32;;;;;;;;;1.80;1.00;;;;;;;;5005189;28;8979;-82
2022/08/02 12:35:18;;;;;;;;;1.00;1.00;;;;;;;;5004182;28;8900;-77
2022/08/02 12:37:50;;;;;;;;;2.00;2.00;;;;;;;;4996374;28;8888;-79
2022/08/02 12:40:25;;;;;;;;;0.40;0.40;;;;;;;;5004891;28;8875;-82
2022/08/02 12:42:57;;;;;;;;;1.60;1.60;;;;;;;;5003693;28;10263;-79
2022/08/02 12:45:25;;;;;;;;;2.00;2.00;;;;;;;;5008381;28;8872;-79
2022/08/02 12:47:55;;;;;;;;;1.00;1.00;;;;;;;;5004802;28;8892;-81
2022/08/02 12:50:25;;;;;;;;;0.80;0.80;;;;;;;;5005634;28;8864;-78
2022/08/02 12:53:06;;;;;;;;;2.40;2.40;;;;;;;;5006298;28;8896;-78
2022/08/02 12:55:34;;;;;;;;;4.40;2.00;;;;;;;;5003588;28;8880;-78
2022/08/02 12:58:04;;;;;;;;;1.60;1.60;;;;;;;;5005759;28;8868;-81
2022/08/02 13:00:35;;;;;;;;;1.80;1.80;;;;;;;;5004969;28;8811;-77
2022/08/02 13:03:03;;;;;;;;;2.00;2.00;;;;;;;;5007038;28;8884;-80
2022/08/02 13:05:31;;;;;;;;;2.00;2.00;;;;;;;;5004930;28;8898;-81
2022/08/02 13:08:00;;;;;;;;;2.00;2.00;;;;;;;;5004872;28;8880;-80
2022/08/02 13:10:28;;;;;;;;;4.80;3.20;;;;;;;;5005546;28;8864;-81
2022/08/02 13:12:56;;;;;;;;;1.20;1.20;;;;;;;;5004783;28;8876;-77
2022/08/02 13:15:24;;;;;;;;;2.80;2.40;;;;;;;;5005648;28;9649;-81
2022/08/02 13:17:55;;;;;;;;;2.40;1.20;;;;;;;;4994365;28;9725;-80
2022/08/02 13:20:26;;;;;;;;;2.00;2.00;;;;;;;;5009110;28;8880;-81
2022/08/02 13:22:53;;;;;;;;;2.00;2.00;;;;;;;;4992873;28;8923;-78
2022/08/02 13:25:22;;;;;;;;;1.00;1.00;;;;;;;;5017622;28;8959;-77
2022/08/02 13:27:51;;;;;;;;;2.00;2.00;;;;;;;;5017252;28;8856;-78
2022/08/02 13:30:19;;;;;;;;;1.80;1.80;;;;;;;;5003447;28;8922;-81
2022/08/02 13:32:46;;;;;;;;;2.00;2.00;;;;;;;;5013355;28;8862;-80
2022/08/02 13:35:13;;;;;;;;;2.20;2.20;;;;;;;;5021937;28;9007;-79
2022/08/02 13:37:43;;;;;;;;;1.00;1.00;;;;;;;;5021541;28;9461;-80
2022/08/02 13:40:14;;;;;;;;;2.20;2.20;;;;;;;;5021724;28;8889;-77
2022/08/02 13:42:41;;;;;;;;;1.40;1.40;;;;;;;;5012580;28;8926;-77
2022/08/02 13:45:11;;;;;;;;;1.00;1.00;;;;;;;;5019248;28;8865;-81
2022/08/02 13:47:39;;;;;;;;;2.00;2.00;;;;;;;;5013545;28;8893;-80
2022/08/02 13:50:07;;;;;;;;;1.00;1.00;;;;;;;;5008157;28;8867;-79
2022/08/02 13:52:34;;;;;;;;;1.20;1.20;;;;;;;;5013741;28;9663;-79
2022/08/02 13:55:01;;;;;;;;;0.40;0.00;;;;;;;;5013974;28;9006;-78
2022/08/02 13:57:29;;;;;;;;;1.40;1.40;;;;;;;;5003855;28;8910;-80
2022/08/02 13:59:56;;;;;;;;;0.60;0.60;;;;;;;;5020793;28;9008;-81
2022/08/02 14:02:25;;;;;;;;;0.80;0.80;;;;;;;;5010652;28;8814;-81
2022/08/02 14:04:52;;;;;;;;;1.80;1.80;;;;;;;;5015106;28;8979;-78
2022/08/02 14:07:20;;;;;;;;;0.20;0.20;;;;;;;;5016253;28;8842;-81
2022/08/02 14:09:47;;;;;;;;;0.80;0.80;;;;;;;;5013771;28;8884;-80
2022/08/02 14:12:14;;;;;;;;;0.00;0.00;;;;;;;;5006166;28;8856;-80
2022/08/02 14:14:42;;;;;;;;;1.00;1.00;;;;;;;;5007962;28;8878;-80
2022/08/02 14:17:10;;;;;;;;;1.00;1.00;;;;;;;;4999976;28;8918;-80
2022/08/02 14:19:39;;;;;;;;;0.40;0.40;;;;;;;;5010521;28;8874;-79
2022/08/02 14:22:06;;;;;;;;;0.00;0.00;;;;;;;;5021626;28;8862;-79
2022/08/02 14:24:33;;;;;;;;;1.80;1.00;;;;;;;;5012340;28;8857;-81
2022/08/02 14:27:02;;;;;;;;;0.00;0.00;;;;;;;;5008695;28;8860;-78
2022/08/02 14:29:29;;;;;;;;;0.00;0.00;;;;;;;;5006590;28;9011;-82
2022/08/02 14:31:56;;;;;;;;;0.00;0.00;;;;;;;;5014797;28;8907;-81
2022/08/02 14:34:24;;;;;;;;;1.40;1.00;;;;;;;;5002890;28;8874;-81
2022/08/02 14:36:53;;;;;;;;;0.00;0.00;;;;;;;;5015564;28;8869;-81
2022/08/02 14:39:20;;;;;;;;;0.80;0.80;;;;;;;;5003619;28;8888;-80
2022/08/02 14:41:47;;;;;;;;;1.60;0.00;;;;;;;;5003967;28;8947;-81
2022/08/02 14:44:14;;;;;;;;;1.20;0.20;;;;;;;;5003036;28;8878;-80
2022/08/02 14:46:41;;;;;;;;;0.00;0.00;;;;;;;;5005460;28;8910;-81
2022/08/02 14:49:10;;;;;;;;;0.80;0.80;;;;;;;;5003172;28;8895;-80
2022/08/02 14:51:39;;;;;;;;;0.00;0.00;;;;;;;;4966674;28;9023;-79
2022/08/02 14:54:09;;;;;;;;;0.40;0.40;;;;;;;;4965521;28;9012;-79
2022/08/02 14:56:36;;;;;;;;;0.80;0.80;;;;;;;;4965214;28;8889;-79
2022/08/02 14:59:04;;;;;;;;;0.60;0.60;;;;;;;;4966366;28;8878;-78
2022/08/02 15:01:32;;;;;;;;;0.40;0.40;;;;;;;;4964437;28;8836;-82
2022/08/02 15:03:59;;;;;;;;;2.40;0.60;;;;;;;;4966821;28;8971;-78
2022/08/02 15:06:27;;;;;;;;;1.20;1.20;;;;;;;;4963058;28;9710;-81
2022/08/02 15:08:55;;;;;;;;;0.00;0.00;;;;;;;;4964433;28;8890;-80
2022/08/02 15:11:27;;;;;;;;;1.00;1.00;;;;;;;;4962436;28;8865;-79
2022/08/02 15:13:57;;;;;;;;;1.00;0.00;;;;;;;;4962815;28;9747;-80
2022/08/02 15:16:25;;;;;;;;;0.00;0.00;;;;;;;;4961515;28;8975;-79